Time;durP1;ratioP1;P1;durP2;ratioP2;P2;SDS_P1;SDS_P2;PMS_P1;PMS_P2;Temp;Humidity;BMP_temperature;BMP_pressure;BME280_temperature;BME280_humidity;BME280_pressure;Samples;Min_cycle;Max_cycle;Signal;HPM_P1;HPM_P2
2021/08/16 00:00:32;;;;;;;;;12.50;12.00;;;;;31.61;29.86;101017.63;144152;648;132912;-69
2021/08/16 00:03:06;;;;;;;;;11.25;11.25;;;;;31.12;30.71;101018.53;144150;597;132012;-69
2021/08/16 00:05:40;;;;;;;;;11.50;11.50;;;;;31.50;30.08;101021.50;144146;648;132912;-70
2021/08/16 00:08:14;;;;;;;;;8.75;8.50;;;;;31.49;29.50;101014.38;144168;574;132024;-70
2021/08/16 00:10:48;;;;;;;;;10.75;10.75;;;;;31.46;29.16;101008.47;144153;584;132020;-69
2021/08/16 00:13:24;;;;;;;;;11.50;11.50;;;;;31.39;29.67;101014.59;144166;565;132012;-70
2021/08/16 00:16:03;;;;;;;;;8.00;8.00;;;;;31.39;29.26;101008.31;144148;685;132012;-69
2021/08/16 00:18:38;;;;;;;;;10.00;10.00;;;;;31.34;29.32;101008.84;144167;564;132014;-70
2021/08/16 00:21:12;;;;;;;;;10.50;10.00;;;;;31.22;29.48;101023.75;144167;570;131020;-71
2021/08/16 00:23:46;;;;;;;;;9.25;9.25;;;;;31.09;29.30;101010.72;144174;576;132013;-71
2021/08/16 00:26:20;;;;;;;;;12.25;11.50;;;;;30.94;29.39;101005.12;144151;618;132912;-70
2021/08/16 00:28:56;;;;;;;;;8.00;8.00;;;;;30.91;29.70;101010.88;144156;581;131020;-70
2021/08/16 00:31:33;;;;;;;;;12.75;12.25;;;;;30.85;29.66;101004.28;144149;613;132912;-70
2021/08/16 00:34:07;;;;;;;;;12.75;12.75;;;;;30.83;29.44;101003.59;144176;611;131020;-75
2021/08/16 00:36:41;;;;;;;;;11.25;11.25;;;;;30.79;30.10;101004.09;144150;575;132921;-73
2021/08/16 00:39:15;;;;;;;;;11.50;10.50;;;;;30.85;29.21;100998.84;144167;660;132014;-72
2021/08/16 00:41:52;;;;;;;;;9.75;9.50;;;;;30.89;29.27;100997.50;144141;616;132912;-72
2021/08/16 00:44:26;;;;;;;;;10.75;10.75;;;;;30.88;29.12;100998.50;144167;593;132014;-70
2021/08/16 00:47:01;;;;;;;;;9.50;9.50;;;;;30.76;29.10;100999.03;144163;602;132911;-71
2021/08/16 00:49:34;;;;;;;;;10.00;9.00;;;;;30.73;29.60;100997.50;144171;579;132010;-73
2021/08/16 00:52:09;;;;;;;;;8.00;8.00;;;;;30.77;29.66;101006.13;144155;570;132020;-71
2021/08/16 00:54:44;;;;;;;;;9.25;9.25;;;;;30.65;29.98;101001.03;144159;604;131020;-71
2021/08/16 00:57:19;;;;;;;;;12.75;12.00;;;;;30.64;29.36;101003.94;144152;571;132020;-71
2021/08/16 00:59:53;;;;;;;;;10.25;9.00;;;;;30.65;29.35;100997.50;144175;620;131020;-72
2021/08/16 01:02:27;;;;;;;;;12.25;11.75;;;;;30.68;29.93;101006.13;144153;605;132020;-71
2021/08/16 01:05:03;;;;;;;;;11.25;10.75;;;;;30.73;29.76;101008.34;144174;600;131045;-70
2021/08/16 01:07:37;;;;;;;;;8.25;8.25;;;;;30.42;30.06;101014.34;144155;564;132020;-69
2021/08/16 01:10:12;;;;;;;;;9.00;8.25;;;;;30.46;29.92;101006.78;144177;618;131020;-71
2021/08/16 01:12:46;;;;;;;;;9.25;9.25;;;;;30.46;29.62;101001.38;144163;579;132012;-72
2021/08/16 01:15:21;;;;;;;;;10.00;10.00;;;;;30.54;29.16;101004.09;144175;618;132014;-70
2021/08/16 01:17:55;;;;;;;;;11.00;11.00;;;;;30.53;29.42;101002.38;144155;738;132020;-71
2021/08/16 01:20:29;;;;;;;;;9.00;8.00;;;;;30.52;29.26;101001.56;144161;661;131020;-71
2021/08/16 01:23:04;;;;;;;;;9.00;9.00;;;;;30.50;28.72;101003.56;144160;619;131912;-70
2021/08/16 01:25:37;;;;;;;;;10.50;9.50;;;;;30.44;28.87;101004.25;144179;585;131020;-72
2021/08/16 01:28:11;;;;;;;;;9.00;8.75;;;;;30.37;29.19;101005.88;144159;678;131912;-74
2021/08/16 01:30:46;;;;;;;;;9.75;9.75;;;;;30.35;29.08;101007.91;144180;581;131021;-73
2021/08/16 01:33:20;;;;;;;;;9.75;9.00;;;;;30.21;28.99;101004.00;144153;577;132012;-74
2021/08/16 01:35:54;;;;;;;;;8.75;8.75;;;;;29.66;29.89;101010.66;144179;570;131022;-73
2021/08/16 01:38:34;;;;;;;;;10.50;10.25;;;;;29.83;29.39;101006.19;144168;641;132021;-72
2021/08/16 01:41:09;;;;;;;;;11.00;11.00;;;;;29.91;29.56;101014.38;144173;732;131020;-71
2021/08/16 01:43:43;;;;;;;;;9.00;9.00;;;;;29.97;29.55;101018.28;144157;575;131034;-69
2021/08/16 01:46:19;;;;;;;;;11.25;9.25;;;;;30.24;28.92;101005.50;144161;571;131014;-73
2021/08/16 01:48:53;;;;;;;;;12.00;9.50;;;;;30.17;29.10;101003.47;144153;640;132012;-76
2021/08/16 01:51:27;;;;;;;;;10.75;10.75;;;;;30.01;29.38;101006.94;144175;581;131021;-74
2021/08/16 01:54:05;;;;;;;;;11.50;11.50;;;;;29.80;29.51;101006.50;144154;660;131016;-77
2021/08/16 01:56:39;;;;;;;;;10.75;10.75;;;;;29.77;29.08;101004.13;144176;572;131022;-74
2021/08/16 01:59:15;;;;;;;;;11.00;9.25;;;;;29.74;29.58;101005.28;144152;606;132912;-72
2021/08/16 02:01:49;;;;;;;;;11.75;9.75;;;;;29.67;29.77;100999.66;144172;602;131020;-74
2021/08/16 02:04:24;;;;;;;;;10.75;10.75;;;;;29.67;30.37;100996.13;144169;624;131015;-76
2021/08/16 02:06:57;;;;;;;;;11.25;10.75;;;;;29.66;30.58;100995.28;144175;582;131029;-76
2021/08/16 02:09:32;;;;;;;;;11.75;9.50;;;;;29.66;30.58;100995.28;144146;581;132012;-75
2021/08/16 02:12:05;;;;;;;;;10.50;10.50;;;;;29.65;31.05;100998.12;144150;743;132015;-74
2021/08/16 02:14:39;;;;;;;;;7.25;7.25;;;;;29.61;30.82;100988.63;144147;565;132012;-73
2021/08/16 02:17:13;;;;;;;;;10.00;10.00;;;;;29.70;30.96;100995.78;144171;602;132010;-71
2021/08/16 02:19:48;;;;;;;;;11.50;8.50;;;;;29.73;30.38;100997.34;144145;571;131912;-71
2021/08/16 02:22:21;;;;;;;;;9.50;9.50;;;;;29.76;30.49;100997.88;144171;602;132010;-71
2021/08/16 02:24:55;;;;;;;;;11.25;11.25;;;;;29.85;30.18;100996.06;144142;563;132014;-71
2021/08/16 02:27:30;;;;;;;;;11.75;10.50;;;;;29.83;30.54;100996.19;144168;669;132012;-71
2021/08/16 02:30:03;;;;;;;;;9.25;9.25;;;;;29.91;30.25;100994.56;144158;587;132912;-74
2021/08/16 02:32:37;;;;;;;;;8.50;8.25;;;;;29.87;30.72;101003.00;144170;569;132014;-74
2021/08/16 02:35:15;;;;;;;;;13.75;13.75;;;;;29.91;30.32;101008.97;144151;667;132912;-74
2021/08/16 02:37:49;;;;;;;;;11.25;11.25;;;;;29.84;30.50;101000.59;144158;569;132012;-71
2021/08/16 02:40:22;;;;;;;;;11.75;11.75;;;;;29.81;30.28;101000.94;144152;668;132012;-72
2021/08/16 02:42:57;;;;;;;;;10.75;9.00;;;;;29.77;30.19;100998.69;144172;620;131021;-70
2021/08/16 02:45:31;;;;;;;;;14.25;12.00;;;;;29.70;30.79;101003.91;144151;586;131912;-70
2021/08/16 02:48:41;;;;;;;;;10.25;10.25;;;;;29.83;30.72;101006.19;144175;608;132020;-70
2021/08/16 02:51:51;;;;;;;;;10.75;9.50;;;;;29.85;30.15;100998.78;144149;586;132019;-71
2021/08/16 02:54:24;;;;;;;;;12.25;11.00;;;;;29.79;30.17;100994.81;144172;656;131020;-70
2021/08/16 02:56:58;;;;;;;;;11.00;10.25;;;;;29.78;30.16;100998.53;144159;616;132012;-70
2021/08/16 02:59:32;;;;;;;;;11.25;10.25;;;;;29.66;30.30;101005.25;144165;578;132010;-70
2021/08/16 03:02:06;;;;;;;;;10.50;9.25;;;;;29.55;30.75;101003.66;144147;597;132012;-70
2021/08/16 03:04:40;;;;;;;;;9.50;9.50;;;;;29.45;30.70;101008.34;144162;592;131015;-70
2021/08/16 03:07:15;;;;;;;;;11.00;10.75;;;;;29.44;31.10;101006.66;144147;564;132913;-72
2021/08/16 03:09:49;;;;;;;;;13.75;10.00;;;;;29.47;30.87;101009.87;144170;621;132012;-69
2021/08/16 03:12:23;;;;;;;;;9.75;9.25;;;;;29.50;30.49;101012.28;144146;624;132014;-71
2021/08/16 03:14:56;;;;;;;;;10.75;9.25;;;;;29.33;31.46;101002.34;144169;656;131021;-71
2021/08/16 03:17:30;;;;;;;;;10.25;10.00;;;;;29.14;31.36;101011.47;144149;584;131911;-70
2021/08/16 03:20:04;;;;;;;;;9.00;8.50;;;;;29.08;31.49;101015.66;144169;585;132011;-71
2021/08/16 03:22:39;;;;;;;;;9.75;8.75;;;;;29.11;31.45;101012.63;144164;593;132912;-72
2021/08/16 03:25:14;;;;;;;;;9.00;9.00;;;;;29.19;31.41;101011.88;144170;563;132010;-70
2021/08/16 03:27:48;;;;;;;;;12.00;10.00;;;;;29.22;31.25;101014.25;144148;569;132912;-69
2021/08/16 03:30:22;;;;;;;;;9.75;9.25;;;;;29.21;31.55;101018.81;144152;642;132012;-70
2021/08/16 03:32:56;;;;;;;;;11.25;11.25;;;;;29.12;31.65;101021.62;144146;563;132014;-70
2021/08/16 03:35:31;;;;;;;;;13.50;9.50;;;;;29.11;32.19;101023.44;144176;647;132011;-69
2021/08/16 03:38:05;;;;;;;;;11.75;11.75;;;;;28.97;32.48;101021.31;144148;569;132012;-69
2021/08/16 03:40:38;;;;;;;;;12.25;12.25;;;;;28.98;32.50;101020.28;144170;623;132014;-69
2021/08/16 03:43:14;;;;;;;;;10.75;10.75;;;;;29.01;32.26;101025.41;144139;575;132912;-70
2021/08/16 03:45:48;;;;;;;;;10.50;10.50;;;;;29.03;31.95;101023.37;144170;570;132012;-70
2021/08/16 03:48:22;;;;;;;;;10.25;9.25;;;;;29.06;32.30;101023.09;144158;569;132012;-70
2021/08/16 03:50:56;;;;;;;;;12.00;11.50;;;;;28.95;32.42;101013.37;144168;586;131021;-69
2021/08/16 03:53:29;;;;;;;;;12.75;11.75;;;;;29.01;32.34;101028.94;144143;618;132912;-69
2021/08/16 03:56:03;;;;;;;;;10.25;10.25;;;;;29.07;32.24;101027.47;144154;631;131020;-70
2021/08/16 03:58:37;;;;;;;;;14.50;14.50;;;;;29.06;32.38;101031.22;144149;659;132912;-70
2021/08/16 04:01:12;;;;;;;;;13.00;12.75;;;;;29.06;32.39;101024.94;144165;606;132012;-70
2021/08/16 04:03:47;;;;;;;;;13.75;12.00;;;;;29.01;32.73;101023.53;144147;650;132018;-69
2021/08/16 04:06:21;;;;;;;;;12.75;11.50;;;;;28.99;32.70;101025.56;144165;664;132014;-69
2021/08/16 04:08:55;;;;;;;;;12.00;11.50;;;;;29.01;32.84;101034.34;144142;646;132014;-71
2021/08/16 04:11:29;;;;;;;;;14.25;11.75;;;;;29.05;32.70;101034.91;144168;605;132015;-70
2021/08/16 04:14:03;;;;;;;;;10.25;10.25;;;;;29.17;32.74;101028.25;144160;582;132018;-69
2021/08/16 04:16:36;;;;;;;;;9.00;9.00;;;;;29.26;32.48;101026.47;144172;615;131020;-70
2021/08/16 04:19:10;;;;;;;;;11.00;11.00;;;;;29.22;33.08;101027.75;144145;591;132013;-68
2021/08/16 04:21:44;;;;;;;;;13.25;12.25;;;;;29.19;32.51;101034.31;144149;603;132014;-68
2021/08/16 04:24:20;;;;;;;;;14.50;13.75;;;;;29.28;33.01;101037.13;144148;605;132012;-69
2021/08/16 04:26:53;;;;;;;;;13.00;13.00;;;;;29.41;32.88;101039.44;144165;572;132013;-69
2021/08/16 04:29:28;;;;;;;;;11.25;9.00;;;;;29.46;32.88;101032.53;144145;565;132912;-69
2021/08/16 04:32:01;;;;;;;;;12.00;11.25;;;;;29.48;32.99;101035.91;144167;609;132012;-69
2021/08/16 04:34:36;;;;;;;;;9.75;9.75;;;;;29.41;33.02;101029.44;144146;670;132021;-69
2021/08/16 04:37:09;;;;;;;;;12.50;11.25;;;;;29.50;32.99;101033.91;144169;613;131020;-70
2021/08/16 04:39:43;;;;;;;;;14.00;12.00;;;;;29.61;33.03;101034.63;144158;637;132015;-69
2021/08/16 04:42:17;;;;;;;;;17.00;16.25;;;;;29.71;33.03;101044.31;144171;614;131021;-69
2021/08/16 04:44:51;;;;;;;;;14.25;12.00;;;;;29.78;33.31;101043.69;144146;661;132912;-69
2021/08/16 04:47:25;;;;;;;;;13.75;12.25;;;;;29.94;33.33;101040.28;144151;613;132015;-69
2021/08/16 04:49:59;;;;;;;;;11.00;10.50;;;;;30.06;32.87;101047.09;144148;565;131912;-68
2021/08/16 04:52:33;;;;;;;;;14.25;10.50;;;;;30.23;32.77;101039.03;144169;631;132012;-69
2021/08/16 04:55:11;;;;;;;;;19.75;16.50;;;;;30.37;32.60;101046.50;144146;673;132013;-68
2021/08/16 04:57:45;;;;;;;;;14.00;13.00;;;;;30.54;32.52;101032.00;144168;731;132010;-69
2021/08/16 05:00:24;;;;;;;;;12.00;11.00;;;;;30.79;31.99;101042.03;144151;587;132018;-68
2021/08/16 05:03:01;;;;;;;;;12.25;10.50;;;;;30.92;31.37;101039.69;144169;606;131021;-68
2021/08/16 05:05:35;;;;;;;;;12.75;11.75;;;;;31.05;31.20;101041.91;144159;565;132014;-69
2021/08/16 05:08:09;;;;;;;;;14.75;14.25;;;;;31.24;31.78;101038.00;144164;573;132022;-70
2021/08/16 05:10:46;;;;;;;;;16.75;16.25;;;;;31.45;31.39;101045.59;144142;625;132014;-70
2021/08/16 05:13:19;;;;;;;;;14.50;13.75;;;;;31.59;31.36;101046.81;144149;624;132010;-70
2021/08/16 05:15:53;;;;;;;;;12.00;12.00;;;;;31.84;31.33;101044.84;144143;616;132014;-69
2021/08/16 05:18:27;;;;;;;;;12.00;12.00;;;;;32.07;31.21;101049.53;144164;569;132010;-71
2021/08/16 05:21:01;;;;;;;;;12.50;12.50;;;;;32.31;31.00;101043.13;144152;586;132912;-72
2021/08/16 05:23:35;;;;;;;;;11.25;11.25;;;;;32.52;30.89;101049.81;144174;600;131020;-71
2021/08/16 05:26:15;;;;;;;;;12.75;10.50;;;;;32.67;31.00;101049.88;144150;572;132034;-71
2021/08/16 05:28:49;;;;;;;;;10.75;9.75;;;;;32.83;30.50;101048.94;144171;563;132012;-71
2021/08/16 05:31:23;;;;;;;;;11.75;10.75;;;;;33.02;30.28;101043.00;144160;796;132013;-70
2021/08/16 05:33:57;;;;;;;;;13.00;11.25;;;;;33.15;30.03;101042.41;144167;570;132014;-71
2021/08/16 05:36:31;;;;;;;;;13.00;13.00;;;;;33.33;29.16;101043.97;144148;573;132012;-70
2021/08/16 05:39:05;;;;;;;;;10.00;10.00;;;;;33.38;29.07;101052.41;144153;569;132015;-70
2021/08/16 05:41:38;;;;;;;;;12.00;12.00;;;;;33.46;28.69;101049.59;144144;583;132014;-72
2021/08/16 05:44:12;;;;;;;;;11.00;11.00;;;;;33.59;28.40;101051.69;144169;575;131020;-69
2021/08/16 05:46:46;;;;;;;;;12.50;11.00;;;;;33.76;28.00;101051.50;144148;586;132912;-69
2021/08/16 05:49:20;;;;;;;;;11.50;11.50;;;;;33.83;27.69;101044.28;144162;580;132014;-69
2021/08/16 05:51:55;;;;;;;;;9.75;9.75;;;;;33.97;27.63;101045.31;144148;566;132012;-70
2021/08/16 05:54:30;;;;;;;;;13.50;13.25;;;;;34.07;27.53;101043.97;144170;621;132012;-70
2021/08/16 05:57:03;;;;;;;;;14.00;12.25;;;;;34.21;27.40;101050.44;144163;613;131912;-71
2021/08/16 05:59:37;;;;;;;;;12.00;12.00;;;;;34.23;27.49;101044.81;144163;570;132014;-72
2021/08/16 06:02:11;;;;;;;;;13.25;12.25;;;;;34.21;27.83;101046.87;144149;613;131912;-72
2021/08/16 06:04:45;;;;;;;;;13.75;11.00;;;;;34.44;27.02;101044.03;144151;583;132014;-72
2021/08/16 06:07:20;;;;;;;;;11.00;11.00;;;;;34.58;27.01;101043.16;144153;569;132012;-72
2021/08/16 06:09:57;;;;;;;;;12.00;12.00;;;;;34.20;27.52;101046.03;144169;640;131021;-71
2021/08/16 06:12:31;;;;;;;;;10.50;7.00;;;;;34.61;27.05;101039.16;144153;645;132012;-71
2021/08/16 06:15:05;;;;;;;;;12.25;12.25;;;;;34.75;26.67;101042.91;144164;591;132014;-70
2021/08/16 06:17:40;;;;;;;;;11.75;11.00;;;;;34.72;26.83;101043.25;144148;701;132012;-72
2021/08/16 06:20:15;;;;;;;;;10.75;10.75;;;;;34.66;27.08;101055.78;144169;646;131030;-73
2021/08/16 06:22:49;;;;;;;;;11.75;11.75;;;;;34.49;27.38;101044.31;144168;603;131017;-73
2021/08/16 06:25:23;;;;;;;;;10.00;10.00;;;;;34.72;27.10;101049.56;144164;597;131052;-72
2021/08/16 06:27:57;;;;;;;;;12.00;12.00;;;;;34.96;27.48;101049.41;144143;651;132911;-71
2021/08/16 06:30:30;;;;;;;;;13.00;12.50;;;;;34.68;27.76;101052.88;144152;629;132015;-71
2021/08/16 06:33:04;;;;;;;;;14.50;12.50;;;;;34.36;28.47;101053.16;144145;606;132019;-71
2021/08/16 06:35:38;;;;;;;;;12.25;11.75;;;;;34.87;27.74;101046.81;144163;584;132010;-71
2021/08/16 06:38:25;;;;;;;;;12.75;12.75;;;;;34.86;28.28;101045.12;144146;641;132912;-71
2021/08/16 06:41:01;;;;;;;;;12.75;11.50;;;;;34.85;27.89;101043.44;144167;600;132012;-71
2021/08/16 06:43:36;;;;;;;;;11.25;11.25;;;;;34.47;28.56;101051.81;144153;621;131912;-70
2021/08/16 06:46:10;;;;;;;;;13.25;13.25;;;;;34.40;28.62;101050.91;144169;576;132015;-70
2021/08/16 06:48:44;;;;;;;;;12.25;12.25;;;;;34.03;28.62;101048.13;144164;654;131912;-71
2021/08/16 06:51:18;;;;;;;;;13.25;13.25;;;;;34.71;27.87;101052.50;144174;583;131020;-71
2021/08/16 06:53:52;;;;;;;;;14.00;12.00;;;;;34.69;27.16;101046.38;144152;576;132018;-73
2021/08/16 06:56:26;;;;;;;;;13.00;12.25;;;;;34.19;28.56;101057.97;144158;669;131020;-72
2021/08/16 06:59:00;;;;;;;;;13.75;13.00;;;;;33.11;29.80;101053.81;144150;611;131912;-73
2021/08/16 07:01:34;;;;;;;;;11.25;11.25;;;;;33.37;29.82;101053.47;144175;610;132008;-72
2021/08/16 07:04:08;;;;;;;;;12.75;12.00;;;;;33.83;29.30;101057.91;144149;581;132012;-68
2021/08/16 07:06:42;;;;;;;;;11.00;11.00;;;;;32.97;30.91;101063.63;144168;685;132012;-68
2021/08/16 07:09:16;;;;;;;;;10.75;10.75;;;;;32.68;30.99;101057.00;144151;614;132013;-70
2021/08/16 07:11:50;;;;;;;;;9.75;9.00;;;;;31.61;32.51;101065.62;144173;766;131020;-71
2021/08/16 07:14:24;;;;;;;;;8.00;8.00;;;;;31.47;32.90;101064.44;144161;595;132912;-69
2021/08/16 07:16:57;;;;;;;;;12.50;11.75;;;;;32.15;31.96;101065.81;144166;782;132010;-70
2021/08/16 07:19:31;;;;;;;;;9.25;9.00;;;;;31.70;32.32;101070.00;144154;579;131912;-69
2021/08/16 07:22:06;;;;;;;;;13.75;13.75;;;;;31.69;32.45;101068.31;144151;623;132010;-70
2021/08/16 07:24:40;;;;;;;;;11.00;10.75;;;;;31.58;31.49;101063.19;144148;599;131912;-69
2021/08/16 07:27:14;;;;;;;;;7.25;6.75;;;;;31.08;31.66;101063.25;144169;597;131048;-69
2021/08/16 07:29:48;;;;;;;;;9.00;9.00;;;;;31.92;30.38;101067.56;144152;751;132012;-69
2021/08/16 07:32:22;;;;;;;;;9.25;9.25;;;;;32.43;31.07;101065.31;144174;601;131021;-69
2021/08/16 07:34:56;;;;;;;;;11.75;11.75;;;;;32.90;29.78;101064.37;144153;592;132012;-69
2021/08/16 07:37:30;;;;;;;;;13.75;12.25;;;;;32.58;30.16;101070.00;144163;629;131020;-70
2021/08/16 07:40:04;;;;;;;;;17.00;13.25;;;;;33.43;29.48;101071.75;144162;583;132912;-69
2021/08/16 07:42:38;;;;;;;;;14.00;14.00;;;;;32.33;31.97;101073.69;144166;628;132010;-70
2021/08/16 07:45:18;;;;;;;;;9.75;9.75;;;;;32.03;31.63;101069.91;144156;585;131912;-70
2021/08/16 07:47:53;;;;;;;;;15.00;15.00;;;;;32.54;31.77;101066.78;144149;632;132010;-71
2021/08/16 07:50:28;;;;;;;;;12.00;12.00;;;;;32.32;30.93;101065.72;144139;570;132014;-71
2021/08/16 07:53:03;;;;;;;;;15.00;13.75;;;;;32.46;31.43;101064.97;144172;629;132012;-71
2021/08/16 07:55:37;;;;;;;;;12.00;12.00;;;;;32.07;30.93;101063.09;144151;749;132018;-71
2021/08/16 07:58:11;;;;;;;;;10.75;10.75;;;;;32.89;30.65;101059.94;144172;651;132012;-71
2021/08/16 08:00:45;;;;;;;;;11.75;11.75;;;;;33.37;29.94;101059.72;144145;611;132015;-71
2021/08/16 08:03:18;;;;;;;;;10.25;10.25;;;;;32.42;30.52;101062.78;144170;623;132012;-71
2021/08/16 08:05:54;;;;;;;;;11.50;10.75;;;;;32.31;30.78;101054.00;144154;587;132935;-72
2021/08/16 08:08:27;;;;;;;;;12.50;12.00;;;;;33.71;28.76;101052.91;144164;577;132014;-71
2021/08/16 08:11:01;;;;;;;;;10.00;9.50;;;;;34.43;26.80;101053.25;144149;600;132018;-72
2021/08/16 08:13:35;;;;;;;;;10.75;10.75;;;;;32.89;29.68;101053.69;144153;615;131020;-71
2021/08/16 08:16:09;;;;;;;;;11.25;11.25;;;;;32.43;29.38;101059.06;144152;605;131912;-71
2021/08/16 08:18:43;;;;;;;;;13.75;12.50;;;;;32.45;29.89;101065.13;144166;616;132014;-72
2021/08/16 08:21:17;;;;;;;;;10.00;10.00;;;;;32.42;30.61;101060.06;144143;640;132014;-72
2021/08/16 08:23:52;;;;;;;;;10.50;10.25;;;;;32.49;30.54;101063.75;144164;571;132014;-71
2021/08/16 08:26:25;;;;;;;;;13.50;12.75;;;;;32.64;30.20;101061.94;144149;671;132012;-71
2021/08/16 08:28:59;;;;;;;;;13.00;13.00;;;;;34.94;26.32;101056.91;144171;649;132012;-72
2021/08/16 08:31:36;;;;;;;;;11.50;11.50;;;;;35.03;25.81;101056.59;144160;602;132912;-71
2021/08/16 08:34:10;;;;;;;;;11.25;10.50;;;;;35.23;23.28;101061.38;144170;602;131020;-72
2021/08/16 08:36:44;;;;;;;;;10.25;8.75;;;;;35.00;24.02;101053.44;144147;582;132015;-71
2021/08/16 08:39:18;;;;;;;;;11.50;11.25;;;;;35.03;24.17;101055.75;144151;634;132010;-72
2021/08/16 08:41:57;;;;;;;;;10.00;10.00;;;;;35.15;23.93;101056.91;144145;569;132912;-69
2021/08/16 08:44:31;;;;;;;;;10.00;10.00;;;;;34.81;25.26;101055.75;144173;601;132012;-68
2021/08/16 08:47:05;;;;;;;;;10.00;10.00;;;;;34.88;25.81;101061.28;144150;583;132012;-68
2021/08/16 08:49:39;;;;;;;;;9.00;9.00;;;;;35.83;24.08;101056.38;144167;611;132014;-70
2021/08/16 08:52:20;;;;;;;;;10.75;10.75;;;;;35.09;23.74;101065.91;144152;604;132012;-69
2021/08/16 08:54:57;;;;;;;;;10.00;8.50;;;;;34.64;23.90;101054.28;144167;623;132014;-69
2021/08/16 08:57:31;;;;;;;;;11.50;11.50;;;;;35.02;23.10;101051.31;144161;584;132012;-68
2021/08/16 09:00:05;;;;;;;;;9.00;8.00;;;;;35.37;22.67;101051.44;144169;571;132012;-69
2021/08/16 09:02:39;;;;;;;;;10.75;10.25;;;;;34.86;23.86;101044.28;144149;579;133018;-69
2021/08/16 09:05:16;;;;;;;;;7.75;7.75;;;;;35.06;23.62;101037.13;144154;563;132012;-68
2021/08/16 09:07:50;;;;;;;;;10.00;9.00;;;;;34.65;24.28;101053.25;144144;637;132014;-69
2021/08/16 09:10:25;;;;;;;;;8.25;8.25;;;;;35.42;23.46;101043.50;144170;687;131020;-69
2021/08/16 09:13:04;;;;;;;;;9.75;9.75;;;;;35.68;22.99;101039.25;144156;570;131016;-69
2021/08/16 09:15:38;;;;;;;;;9.50;8.50;;;;;34.61;25.15;101035.59;144164;575;131021;-68
2021/08/16 09:18:13;;;;;;;;;12.00;12.00;;;;;33.90;27.09;101032.47;144143;596;132911;-69
2021/08/16 09:20:46;;;;;;;;;10.75;10.75;;;;;34.71;26.72;101038.88;144170;590;131020;-69
2021/08/16 09:23:20;;;;;;;;;9.00;9.00;;;;;34.83;25.18;101034.63;144158;566;132912;-68
2021/08/16 09:26:00;;;;;;;;;10.75;9.75;;;;;34.77;24.62;101035.34;144171;622;131020;-69
2021/08/16 09:28:35;;;;;;;;;11.50;11.25;;;;;35.69;23.71;101035.47;144156;585;131020;-68
2021/08/16 09:31:21;;;;;;;;;11.00;11.00;;;;;35.82;23.51;101023.78;144150;612;132010;-68
2021/08/16 09:34:03;;;;;;;;;12.25;10.75;;;;;36.02;22.45;101022.00;144154;564;131020;-68
2021/08/16 09:36:42;;;;;;;;;10.50;9.75;;;;;36.40;22.07;101016.06;144169;633;132012;-68
2021/08/16 09:39:23;;;;;;;;;10.00;9.75;;;;;36.04;22.56;101019.06;144143;614;132014;-68
2021/08/16 09:42:05;;;;;;;;;11.25;11.25;;;;;36.20;21.36;101012.41;144174;649;132010;-70
2021/08/16 09:44:50;;;;;;;;;11.50;10.50;;;;;36.00;20.23;101023.25;144151;577;132013;-69
2021/08/16 09:47:24;;;;;;;;;8.25;8.25;;;;;35.81;20.60;101025.66;144173;583;131020;-68
2021/08/16 09:50:02;;;;;;;;;10.00;9.25;;;;;35.88;20.85;101026.56;144157;570;133016;-68
2021/08/16 09:52:36;;;;;;;;;9.75;9.75;;;;;35.91;20.95;101001.56;144174;654;131021;-70
2021/08/16 09:55:13;;;;;;;;;9.50;9.50;;;;;35.61;21.80;101008.31;144149;596;131912;-68
2021/08/16 09:57:48;;;;;;;;;9.25;8.75;;;;;35.59;21.77;101005.78;144152;577;132010;-68
2021/08/16 10:00:22;;;;;;;;;8.50;8.50;;;;;35.23;23.46;100996.72;144146;587;132014;-69
2021/08/16 10:02:57;;;;;;;;;9.00;9.00;;;;;35.53;25.04;100988.34;144168;569;132014;-69
2021/08/16 10:05:32;;;;;;;;;9.00;8.25;;;;;35.45;27.17;100993.97;144148;576;132912;-70
2021/08/16 10:08:08;;;;;;;;;7.50;7.50;;;;;34.70;30.17;100983.47;144168;591;132014;-68
2021/08/16 10:10:45;;;;;;;;;7.50;6.00;;;;;34.18;31.97;100988.16;144144;655;132014;-69
2021/08/16 10:13:23;;;;;;;;;6.00;6.00;;;;;34.96;30.88;100983.94;144169;603;132010;-69
2021/08/16 10:16:06;;;;;;;;;7.00;7.00;;;;;35.19;31.08;100990.00;144160;603;132913;-68
2021/08/16 10:18:49;;;;;;;;;8.00;7.00;;;;;34.92;31.45;100978.88;144173;564;132012;-69
2021/08/16 10:21:28;;;;;;;;;8.00;6.00;;;;;36.14;29.05;100978.53;144151;615;131912;-69
2021/08/16 10:24:02;;;;;;;;;6.00;5.50;;;;;35.85;29.85;100983.25;144153;581;131020;-69
2021/08/16 10:26:38;;;;;;;;;6.25;6.25;;;;;35.07;31.17;100981.50;144142;599;133020;-68
2021/08/16 10:29:14;;;;;;;;;8.25;7.75;;;;;35.52;30.36;100966.72;144173;626;131021;-67
2021/08/16 10:31:53;;;;;;;;;6.75;6.75;;;;;35.61;30.82;100979.16;144149;573;131912;-70
2021/08/16 10:34:50;;;;;;;;;5.75;5.75;;;;;35.36;30.39;100956.97;144168;579;132012;-70
2021/08/16 10:37:24;;;;;;;;;5.75;5.75;;;;;36.11;29.82;100959.81;144149;570;131914;-69
2021/08/16 10:39:58;;;;;;;;;8.25;7.75;;;;;36.01;30.17;100975.78;144171;588;131020;-69
2021/08/16 10:42:37;;;;;;;;;8.00;8.00;;;;;35.63;30.62;100965.28;144160;583;132013;-69
2021/08/16 10:45:12;;;;;;;;;5.25;5.25;;;;;35.80;30.89;100963.91;144171;589;131021;-70
2021/08/16 10:47:46;;;;;;;;;7.25;7.25;;;;;35.20;31.43;100953.47;144147;571;132912;-69
2021/08/16 10:50:28;;;;;;;;;8.00;8.00;;;;;35.71;30.98;100955.03;144152;597;132010;-69
2021/08/16 10:53:09;;;;;;;;;8.25;7.75;;;;;36.45;30.00;100951.72;144152;563;132019;-71
2021/08/16 10:55:47;;;;;;;;;6.75;6.75;;;;;36.39;30.27;100950.66;144167;591;132012;-69
2021/08/16 10:58:21;;;;;;;;;8.00;8.00;;;;;36.45;30.14;100947.09;144146;623;132912;-68
2021/08/16 11:00:55;;;;;;;;;4.00;4.00;;;;;36.83;29.17;100934.72;144175;607;132010;-70
2021/08/16 11:03:30;;;;;;;;;9.25;7.25;;;;;36.18;30.29;100933.34;144150;570;132932;-68
2021/08/16 11:06:09;;;;;;;;;6.00;6.00;;;;;36.20;30.54;100942.19;144165;639;132010;-69
2021/08/16 11:08:43;;;;;;;;;6.25;5.75;;;;;35.88;30.89;100925.53;144159;586;131912;-69
2021/08/16 11:11:17;;;;;;;;;6.75;6.75;;;;;34.72;32.75;100924.16;144166;596;132010;-68
2021/08/16 11:13:51;;;;;;;;;6.75;6.00;;;;;34.58;33.11;100911.44;144149;588;132021;-70
2021/08/16 11:16:25;;;;;;;;;7.00;5.00;;;;;34.70;33.21;100920.78;144149;643;132024;-69
2021/08/16 11:18:59;;;;;;;;;6.25;6.25;;;;;35.79;31.47;100920.38;144151;640;131938;-70
2021/08/16 11:21:33;;;;;;;;;6.50;5.50;;;;;36.08;30.80;100917.34;144167;624;131021;-70
2021/08/16 11:24:07;;;;;;;;;7.00;7.00;;;;;36.11;30.79;100909.81;144147;591;132012;-69
2021/08/16 11:26:51;;;;;;;;;7.25;5.00;;;;;35.68;31.81;100910.94;144174;617;131021;-70
2021/08/16 11:29:29;;;;;;;;;6.25;6.25;;;;;35.68;31.71;100914.50;144151;634;132912;-69
2021/08/16 11:32:05;;;;;;;;;5.50;5.00;;;;;35.86;31.72;100910.38;144167;675;131022;-71
2021/08/16 11:34:56;;;;;;;;;5.00;5.00;;;;;34.92;33.01;100907.97;144166;622;131912;-70
2021/08/16 11:37:33;;;;;;;;;8.00;6.00;;;;;35.55;32.28;100912.53;144170;581;132020;-69
2021/08/16 11:40:09;;;;;;;;;5.50;5.50;;;;;35.00;33.26;100903.41;144146;582;132912;-69
2021/08/16 11:42:43;;;;;;;;;2.50;2.50;;;;;35.78;32.01;100899.62;144150;564;132021;-70